Time;durP1;ratioP1;P1;durP2;ratioP2;P2;SDS_P1;SDS_P2;PMS_P1;PMS_P2;Temp;Humidity;BMP_temperature;BMP_pressure;BME280_temperature;BME280_humidity;BME280_pressure;Samples;Min_cycle;Max_cycle;Signal;HPM_P1;HPM_P2
2022/01/18 00:02:04;;;;;;;16.88;6.20;;;4.00;99.30;;;;;;4974998;28;20121;-68
2022/01/18 00:04:30;;;;;;;13.88;4.95;;;3.80;99.90;;;;;;4976222;28;20026;-68
2022/01/18 00:06:56;;;;;;;10.50;4.18;;;3.70;99.90;;;;;;4992671;28;20069;-67
2022/01/18 00:09:24;;;;;;;7.75;3.35;;;3.60;99.90;;;;;;4959917;28;20444;-67
2022/01/18 00:11:59;;;;;;;11.75;4.72;;;3.60;99.90;;;;;;4993394;28;20109;-67
2022/01/18 00:14:40;;;;;;;9.57;3.42;;;3.60;99.90;;;;;;4959784;28;20034;-69
2022/01/18 00:19:46;;;;;;;17.20;5.28;;;3.70;99.90;;;;;;4973804;28;20027;-67
2022/01/18 00:22:13;;;;;;;21.55;8.30;;;3.70;99.90;;;;;;4973864;28;20046;-68
2022/01/18 00:24:41;;;;;;;14.60;5.57;;;3.70;99.90;;;;;;4972615;28;20100;-68
2022/01/18 00:27:12;;;;;;;15.32;5.57;;;3.60;99.90;;;;;;4972430;28;20086;-67
2022/01/18 00:29:45;;;;;;;21.05;6.45;;;3.50;99.90;;;;;;4973439;28;20038;-68
2022/01/18 00:32:43;;;;;;;17.15;6.75;;;3.50;99.90;;;;;;4972365;28;20062;-67
2022/01/18 00:35:00;;;;;;;16.50;7.63;;;3.40;99.90;;;;;;4956862;28;20035;-67
2022/01/18 00:37:35;;;;;;;17.13;6.38;;;3.40;99.90;;;;;;4957353;28;20037;-68
2022/01/18 00:40:05;;;;;;;10.48;4.57;;;3.30;99.90;;;;;;4973129;28;20441;-67
2022/01/18 00:42:31;;;;;;;9.15;3.83;;;3.30;99.90;;;;;;4973216;28;20030;-68
2022/01/18 00:44:57;;;;;;;5.80;2.70;;;3.30;99.90;;;;;;4972882;28;20077;-68
2022/01/18 00:47:29;;;;;;;9.13;3.47;;;3.30;99.90;;;;;;4973131;28;20037;-67
2022/01/18 00:50:01;;;;;;;9.00;3.13;;;3.30;99.90;;;;;;4972257;28;20031;-68
2022/01/18 00:52:40;;;;;;;12.27;3.38;;;3.30;99.90;;;;;;4972002;28;20058;-68
2022/01/18 00:55:06;;;;;;;6.88;2.70;;;3.20;99.90;;;;;;4972088;28;20393;-68
2022/01/18 00:57:32;;;;;;;6.68;3.40;;;3.20;99.90;;;;;;4972639;28;20497;-69
2022/01/18 00:59:58;;;;;;;6.13;2.50;;;3.20;99.90;;;;;;4965102;28;20130;-68
2022/01/18 01:02:24;;;;;;;8.90;3.20;;;3.10;99.90;;;;;;4971620;28;20058;-68
2022/01/18 01:04:50;;;;;;;5.35;2.22;;;3.10;99.90;;;;;;4955924;28;20051;-68
2022/01/18 01:07:19;;;;;;;6.55;1.95;;;3.20;99.90;;;;;;4973148;28;20477;-69
2022/01/18 01:09:46;;;;;;;6.65;2.58;;;3.30;99.90;;;;;;4973157;28;20039;-67
2022/01/18 01:12:14;;;;;;;10.25;3.90;;;3.20;99.90;;;;;;4973002;28;20027;-69
2022/01/18 01:14:41;;;;;;;10.30;3.47;;;3.20;99.90;;;;;;4972896;28;20101;-68
2022/01/18 01:19:54;;;;;;;8.05;2.25;;;3.20;99.90;;;;;;4972961;28;20034;-68
2022/01/18 01:44:22;;;;;;;5.00;1.52;;;2.90;99.90;;;;;;4972781;28;20027;-68
2022/01/18 01:46:49;;;;;;;5.20;1.60;;;2.90;99.90;;;;;;4973410;28;20027;-67
2022/01/18 01:49:15;;;;;;;8.48;3.05;;;2.90;99.90;;;;;;4959659;28;20030;-68
2022/01/18 01:51:47;;;;;;;7.03;2.50;;;2.90;99.90;;;;;;4975463;28;20031;-68
2022/01/18 01:54:14;;;;;;;5.95;2.03;;;2.90;99.90;;;;;;4976451;28;20029;-68
2022/01/18 01:56:40;;;;;;;9.82;3.67;;;2.90;99.90;;;;;;4976726;28;20031;-68
2022/01/18 01:59:06;;;;;;;7.80;3.72;;;2.90;99.90;;;;;;4972408;28;20482;-68
2022/01/18 02:01:44;;;;;;;15.23;5.05;;;2.80;99.90;;;;;;4983206;28;20031;-69
2022/01/18 02:04:11;;;;;;;17.58;6.20;;;2.70;99.90;;;;;;4995600;28;20034;-68
2022/01/18 02:06:37;;;;;;;15.05;5.32;;;2.70;99.90;;;;;;4978026;28;20033;-70
2022/01/18 02:09:04;;;;;;;25.63;7.75;;;2.60;99.90;;;;;;4995572;28;20026;-69
2022/01/18 02:11:31;;;;;;;11.15;4.22;;;2.60;99.90;;;;;;4978210;28;20109;-68
2022/01/18 02:13:57;;;;;;;5.15;2.35;;;2.60;99.90;;;;;;4995701;28;20099;-68
2022/01/18 02:21:52;;;;;;;5.75;2.33;;;2.40;99.90;;;;;;4995419;28;20037;-68
2022/01/18 02:24:22;;;;;;;5.35;2.72;;;2.50;99.90;;;;;;4995422;28;20031;-68
2022/01/18 02:26:48;;;;;;;10.75;3.08;;;2.40;99.90;;;;;;4995304;28;20088;-68
2022/01/18 02:29:15;;;;;;;4.28;2.17;;;2.50;99.90;;;;;;4995218;28;20068;-68
2022/01/18 02:31:42;;;;;;;8.27;3.38;;;2.50;99.90;;;;;;4978151;28;20088;-68
2022/01/18 02:34:15;;;;;;;13.23;4.32;;;2.50;99.90;;;;;;4995096;28;20105;-68
2022/01/18 02:36:42;;;;;;;11.18;3.70;;;2.50;99.90;;;;;;4995349;28;20097;-68
2022/01/18 02:39:09;;;;;;;8.25;2.92;;;2.60;99.90;;;;;;4994975;28;20026;-68
2022/01/18 02:41:36;;;;;;;10.65;3.00;;;2.60;99.90;;;;;;4995565;28;20030;-69
2022/01/18 02:44:12;;;;;;;6.53;2.75;;;2.60;99.90;;;;;;4994688;28;20033;-67
2022/01/18 02:46:41;;;;;;;11.60;3.97;;;2.60;99.90;;;;;;4977748;28;20376;-68
2022/01/18 02:49:08;;;;;;;11.75;4.22;;;2.60;99.90;;;;;;4995116;28;20029;-68
2022/01/18 02:51:34;;;;;;;10.52;2.60;;;2.50;99.90;;;;;;4994984;28;20026;-68
2022/01/18 02:54:05;;;;;;;7.90;2.88;;;2.50;99.90;;;;;;4995196;28;20073;-68
2022/01/18 02:56:42;;;;;;;9.57;3.80;;;2.50;99.90;;;;;;4994690;28;20081;-67
2022/01/18 03:04:50;;;;;;;9.93;3.80;;;2.40;99.90;;;;;;4918685;29;20028;-68
2022/01/18 03:07:17;;;;;;;10.27;3.75;;;2.40;99.90;;;;;;4934072;29;20039;-68
2022/01/18 03:09:43;;;;;;;13.48;4.65;;;2.40;99.90;;;;;;4918457;29;20028;-68
2022/01/18 03:12:10;;;;;;;7.65;3.17;;;2.40;99.90;;;;;;4934192;29;20047;-69
2022/01/18 03:14:38;;;;;;;6.05;2.88;;;2.40;99.90;;;;;;4933723;29;20034;-68
2022/01/18 03:17:05;;;;;;;9.45;4.07;;;2.30;99.90;;;;;;4918389;29;20055;-68
2022/01/18 03:19:31;;;;;;;13.57;5.03;;;2.30;99.90;;;;;;4934041;29;20127;-68
2022/01/18 03:21:58;;;;;;;7.70;3.10;;;2.30;99.90;;;;;;4933841;29;20063;-68
2022/01/18 03:29:34;;;;;;;7.18;3.35;;;2.30;99.90;;;;;;4933657;29;20035;-68
2022/01/18 03:32:00;;;;;;;9.05;2.97;;;2.30;99.90;;;;;;4933808;29;20066;-69
2022/01/18 03:34:26;;;;;;;4.75;2.30;;;2.30;99.90;;;;;;4933730;29;20398;-69
2022/01/18 03:36:53;;;;;;;7.97;2.45;;;2.40;99.90;;;;;;4933574;29;20114;-69
2022/01/18 03:39:22;;;;;;;6.35;2.85;;;2.40;99.90;;;;;;4975816;28;20374;-68
2022/01/18 03:41:54;;;;;;;6.40;2.33;;;2.30;99.90;;;;;;4968758;28;20077;-68
2022/01/18 03:44:22;;;;;;;6.05;2.72;;;2.30;99.90;;;;;;4993955;28;20027;-68
2022/01/18 03:46:50;;;;;;;3.67;2.20;;;2.20;99.90;;;;;;4993584;28;20031;-68
2022/01/18 03:49:17;;;;;;;4.63;2.25;;;2.20;99.90;;;;;;4976312;28;20036;-68
2022/01/18 03:51:43;;;;;;;8.35;3.13;;;2.10;99.90;;;;;;4993464;28;20053;-67
2022/01/18 03:54:09;;;;;;;5.85;2.63;;;2.10;99.90;;;;;;4993843;28;20062;-68
2022/01/18 03:56:35;;;;;;;8.77;3.13;;;2.10;99.90;;;;;;4993763;28;20057;-68
2022/01/18 03:59:04;;;;;;;11.07;3.40;;;2.10;99.90;;;;;;4993236;28;20074;-68
2022/01/18 04:01:32;;;;;;;8.32;3.30;;;2.00;99.90;;;;;;4975686;28;20034;-67
2022/01/18 04:03:59;;;;;;;7.80;3.50;;;2.00;99.90;;;;;;4993472;28;20750;-68
2022/01/18 04:06:25;;;;;;;7.35;2.85;;;2.00;99.90;;;;;;4993372;28;20077;-68
2022/01/18 04:08:51;;;;;;;10.10;3.70;;;2.00;99.90;;;;;;4992887;28;20022;-68
2022/01/18 04:11:17;;;;;;;6.68;3.00;;;2.00;99.90;;;;;;4993473;28;20030;-67
2022/01/18 04:13:44;;;;;;;6.95;2.70;;;1.90;99.90;;;;;;4988911;28;20380;-68
2022/01/18 04:16:10;;;;;;;7.55;3.05;;;1.90;99.90;;;;;;4993060;28;20512;-69
2022/01/18 04:27:01;;;;;;;9.13;3.65;;;1.80;99.90;;;;;;4952100;29;20211;-67
2022/01/18 04:29:29;;;;;;;6.55;2.53;;;1.70;99.90;;;;;;4951729;29;20102;-68
2022/01/18 04:32:01;;;;;;;8.30;2.80;;;1.70;99.90;;;;;;4935490;29;20043;-69
2022/01/18 04:34:26;;;;;;;12.25;3.38;;;1.80;99.90;;;;;;4932657;29;20051;-68
2022/01/18 04:36:55;;;;;;;8.80;3.70;;;1.70;99.90;;;;;;4950017;29;20121;-69
2022/01/18 04:39:21;;;;;;;12.95;4.18;;;1.70;99.90;;;;;;4951989;29;20791;-69
2022/01/18 04:41:47;;;;;;;14.52;5.68;;;1.70;99.90;;;;;;4951615;29;20046;-68
2022/01/18 04:49:42;;;;;;;11.73;4.05;;;1.80;99.90;;;;;;4951634;29;20027;-68
2022/01/18 04:52:20;;;;;;;9.02;4.03;;;1.80;99.90;;;;;;4950860;29;20425;-68
2022/01/18 04:54:57;;;;;;;10.73;3.97;;;1.70;99.90;;;;;;4951274;29;20030;-69
2022/01/18 05:00:17;;;;;;;11.73;4.10;;;1.70;99.90;;;;;;4975024;28;20022;-68
2022/01/18 05:02:54;;;;;;;12.00;5.80;;;1.70;99.90;;;;;;4990728;28;20437;-69
2022/01/18 05:05:26;;;;;;;14.07;7.85;;;1.70;99.90;;;;;;4974595;28;20087;-69
2022/01/18 05:07:59;;;;;;;16.50;7.68;;;1.70;99.90;;;;;;4991970;28;20027;-68
2022/01/18 05:10:32;;;;;;;21.20;9.60;;;1.70;99.90;;;;;;4975993;28;20053;-67
2022/01/18 05:12:59;;;;;;;16.63;6.80;;;1.70;99.90;;;;;;4992499;28;20105;-68
2022/01/18 05:18:54;;;;;;;15.73;6.85;;;1.60;99.90;;;;;;4991926;28;20197;-68
2022/01/18 05:23:27;;;;;;;14.38;7.78;;;1.60;99.90;;;;;;4978236;28;20093;-68
2022/01/18 05:25:56;;;;;;;14.73;7.38;;;1.50;99.90;;;;;;4996456;28;20689;-68
2022/01/18 05:28:25;;;;;;;15.02;6.93;;;1.50;99.90;;;;;;4978518;28;20029;-68
2022/01/18 05:30:51;;;;;;;12.95;6.22;;;1.50;99.90;;;;;;4978258;28;20081;-67
2022/01/18 05:33:38;;;;;;;14.43;5.05;;;1.50;99.90;;;;;;4987755;28;20045;-67
2022/01/18 05:36:07;;;;;;;16.02;5.85;;;1.40;99.90;;;;;;4996118;28;20061;-66
2022/01/18 05:38:35;;;;;;;14.75;6.10;;;1.40;99.90;;;;;;4995923;28;20042;-68
2022/01/18 05:41:06;;;;;;;19.17;7.47;;;1.40;99.90;;;;;;4980227;28;20037;-69
2022/01/18 05:43:33;;;;;;;17.35;5.88;;;1.40;99.90;;;;;;4978751;28;20129;-68
2022/01/18 05:46:00;;;;;;;20.55;6.85;;;1.40;99.90;;;;;;5004517;28;20018;-68
2022/01/18 05:48:28;;;;;;;15.23;6.40;;;1.30;99.90;;;;;;4973655;28;20037;-69
2022/01/18 05:50:59;;;;;;;18.17;9.45;;;1.40;99.90;;;;;;4981811;28;20022;-68
2022/01/18 05:53:27;;;;;;;11.70;5.95;;;1.40;99.90;;;;;;4978463;28;20031;-68
2022/01/18 05:55:53;;;;;;;13.00;6.72;;;1.40;99.90;;;;;;5008446;28;20018;-69
2022/01/18 05:58:20;;;;;;;10.73;5.28;;;1.40;99.90;;;;;;5007727;28;20043;-68
2022/01/18 06:00:55;;;;;;;12.00;5.53;;;1.40;99.90;;;;;;5004032;28;20089;-68
2022/01/18 06:03:52;;;;;;;13.10;6.25;;;1.50;99.90;;;;;;4981996;28;20038;-68
2022/01/18 06:09:02;;;;;;;13.40;5.88;;;1.50;99.90;;;;;;4995614;28;20476;-68
2022/01/18 06:11:28;;;;;;;12.43;4.90;;;1.50;99.90;;;;;;4995908;28;20117;-68
2022/01/18 06:13:54;;;;;;;12.70;4.95;;;1.50;99.90;;;;;;4995600;28;20062;-68
2022/01/18 06:16:20;;;;;;;15.40;5.20;;;1.50;99.90;;;;;;4995760;28;20029;-68
2022/01/18 06:18:46;;;;;;;18.77;7.97;;;1.50;99.90;;;;;;4995440;28;20038;-68
2022/01/18 06:21:12;;;;;;;18.40;7.70;;;1.50;99.90;;;;;;4995338;28;20545;-69
2022/01/18 06:23:37;;;;;;;14.43;6.30;;;1.50;99.90;;;;;;4995482;28;20022;-68
2022/01/18 06:26:15;;;;;;;15.88;6.22;;;1.50;99.90;;;;;;4995247;28;20014;-68
2022/01/18 06:28:42;;;;;;;16.73;6.43;;;1.60;99.90;;;;;;4977236;28;20026;-69
2022/01/18 06:31:09;;;;;;;18.00;7.43;;;1.60;99.90;;;;;;4976831;28;20039;-69
2022/01/18 06:33:37;;;;;;;14.77;7.38;;;1.60;99.90;;;;;;4978048;28;20031;-68
2022/01/18 06:36:11;;;;;;;15.13;6.22;;;1.60;99.90;;;;;;4995083;28;20031;-68
2022/01/18 06:38:40;;;;;;;16.73;7.40;;;1.70;99.90;;;;;;4978123;28;20038;-68
2022/01/18 06:41:07;;;;;;;15.75;6.28;;;1.70;99.90;;;;;;5006091;28;20404;-68
2022/01/18 06:43:34;;;;;;;14.43;5.43;;;1.80;99.90;;;;;;4996330;28;20458;-68
2022/01/18 06:46:00;;;;;;;13.30;5.97;;;1.80;99.90;;;;;;4994748;28;20117;-69
2022/01/18 06:48:26;;;;;;;16.45;5.95;;;1.90;99.90;;;;;;4994937;28;20077;-68
2022/01/18 06:50:52;;;;;;;13.63;5.80;;;2.00;99.90;;;;;;4995028;28;20106;-69
2022/01/18 06:53:18;;;;;;;14.93;6.10;;;2.00;99.90;;;;;;4994558;28;20449;-69
2022/01/18 06:55:53;;;;;;;17.13;5.60;;;2.00;99.90;;;;;;4976953;28;20049;-69
2022/01/18 06:58:20;;;;;;;13.85;5.78;;;2.20;99.90;;;;;;4995362;28;20057;-69
2022/01/18 07:00:46;;;;;;;12.98;5.50;;;2.30;99.90;;;;;;4994242;28;20034;-68
2022/01/18 07:03:12;;;;;;;14.77;6.70;;;2.40;99.90;;;;;;4994371;28;20042;-68
2022/01/18 07:05:41;;;;;;;19.63;8.93;;;2.40;99.90;;;;;;4994632;28;20069;-68
2022/01/18 07:08:07;;;;;;;26.20;12.95;;;2.50;99.90;;;;;;4976916;28;20033;-69
2022/01/18 07:10:34;;;;;;;23.60;11.65;;;2.50;99.90;;;;;;5008546;28;20026;-69
2022/01/18 07:13:02;;;;;;;22.38;12.70;;;2.60;99.90;;;;;;4995744;28;20053;-69
2022/01/18 07:15:28;;;;;;;21.77;11.48;;;2.70;99.90;;;;;;4994667;28;20349;-69
2022/01/18 07:17:54;;;;;;;20.40;10.02;;;2.80;99.90;;;;;;4994026;28;20078;-69
2022/01/18 07:20:19;;;;;;;17.05;7.57;;;2.90;99.90;;;;;;4994157;28;20034;-69
2022/01/18 07:22:46;;;;;;;14.18;6.05;;;2.90;99.90;;;;;;4994130;28;20503;-69
2022/01/18 07:25:13;;;;;;;14.38;5.40;;;3.00;99.90;;;;;;4994283;28;20010;-69
2022/01/18 07:27:39;;;;;;;11.68;4.90;;;3.10;99.90;;;;;;4994239;28;20444;-69
2022/01/18 07:30:05;;;;;;;9.88;4.53;;;3.20;99.90;;;;;;4994425;28;20054;-68
2022/01/18 07:32:31;;;;;;;13.65;4.88;;;3.30;99.90;;;;;;4994018;28;20061;-69
2022/01/18 07:34:57;;;;;;;12.55;5.57;;;3.30;99.90;;;;;;4994212;28;20049;-68
2022/01/18 07:37:23;;;;;;;9.32;4.75;;;3.30;99.90;;;;;;4994157;28;20038;-69
2022/01/18 07:39:51;;;;;;;9.10;4.90;;;3.40;99.90;;;;;;4993995;28;20117;-68
2022/01/18 07:42:18;;;;;;;12.15;5.07;;;3.40;99.90;;;;;;4993534;28;20035;-69
2022/01/18 07:44:44;;;;;;;18.00;5.95;;;3.50;99.90;;;;;;4992561;28;20026;-69
2022/01/18 07:47:10;;;;;;;11.23;5.25;;;3.60;99.90;;;;;;4993827;28;20116;-68
2022/01/18 07:49:36;;;;;;;16.33;5.72;;;3.70;99.90;;;;;;4994070;28;20038;-68
2022/01/18 07:52:02;;;;;;;14.73;6.38;;;3.80;99.90;;;;;;4994049;28;20049;-69
2022/01/18 07:54:28;;;;;;;13.95;5.45;;;3.70;99.90;;;;;;4993894;28;20045;-68
2022/01/18 07:56:54;;;;;;;15.73;5.35;;;3.70;99.90;;;;;;4976491;28;20038;-69
2022/01/18 07:59:20;;;;;;;15.35;6.20;;;3.80;99.90;;;;;;4993133;28;20046;-68
2022/01/18 08:01:47;;;;;;;12.57;6.43;;;3.80;99.90;;;;;;4993486;28;20053;-69
2022/01/18 08:04:13;;;;;;;13.30;5.63;;;3.90;99.90;;;;;;5006794;28;20026;-69
2022/01/18 08:06:40;;;;;;;10.60;5.25;;;3.90;99.90;;;;;;4996727;28;20030;-69
2022/01/18 08:09:06;;;;;;;19.88;5.68;;;3.90;99.90;;;;;;4992954;28;20022;-68
2022/01/18 08:11:32;;;;;;;13.57;5.20;;;4.00;99.90;;;;;;4992651;28;20044;-69
2022/01/18 08:14:00;;;;;;;16.40;6.60;;;4.10;99.90;;;;;;4975388;28;20036;-68
2022/01/18 08:19:00;;;;;;;21.00;9.50;;;4.10;99.90;;;;;;4996215;28;20118;-70
2022/01/18 08:21:30;;;;;;;22.35;8.73;;;4.10;99.80;;;;;;4968336;28;20027;-69
2022/01/18 08:23:55;;;;;;;16.08;8.10;;;4.20;99.90;;;;;;4990475;28;20061;-68
2022/01/18 08:26:21;;;;;;;15.63;6.90;;;4.20;99.90;;;;;;4991737;28;20076;-68
2022/01/18 08:28:47;;;;;;;16.65;7.63;;;4.30;99.90;;;;;;4991215;28;20456;-69
2022/01/18 08:31:13;;;;;;;13.68;6.47;;;4.40;99.90;;;;;;4985761;28;20037;-69
2022/01/18 08:33:39;;;;;;;15.95;6.97;;;4.50;99.70;;;;;;4990990;28;20014;-69
2022/01/18 08:36:06;;;;;;;14.75;6.90;;;4.60;99.90;;;;;;4992303;28;20054;-71
2022/01/18 08:38:33;;;;;;;13.40;6.22;;;4.50;98.90;;;;;;4992170;28;20030;-71
2022/01/18 08:41:00;;;;;;;14.35;5.53;;;4.50;98.70;;;;;;4991722;28;20054;-68
2022/01/18 08:43:30;;;;;;;10.98;4.63;;;4.70;98.10;;;;;;4992740;28;20034;-68
2022/01/18 08:46:00;;;;;;;12.55;4.55;;;4.60;96.50;;;;;;4992370;28;20053;-68
2022/01/18 08:48:26;;;;;;;10.55;4.45;;;4.50;98.80;;;;;;4992700;28;20030;-68
2022/01/18 08:50:52;;;;;;;13.25;6.22;;;4.60;98.00;;;;;;4992278;28;20037;-68
2022/01/18 08:53:18;;;;;;;13.73;6.10;;;4.70;97.20;;;;;;4992362;28;20022;-69
2022/01/18 08:55:44;;;;;;;11.68;5.20;;;4.70;98.30;;;;;;4992158;28;20388;-69
2022/01/18 08:58:11;;;;;;;13.40;6.22;;;4.60;96.50;;;;;;4974510;28;20400;-68
2022/01/18 09:00:38;;;;;;;14.20;6.05;;;4.70;97.40;;;;;;4992989;28;20379;-69
2022/01/18 09:03:05;;;;;;;9.80;4.72;;;4.90;98.60;;;;;;4992129;28;20045;-69
2022/01/18 09:05:31;;;;;;;9.60;3.70;;;4.90;95.90;;;;;;4993297;28;20061;-68
2022/01/18 09:08:01;;;;;;;13.13;4.43;;;4.80;95.00;;;;;;4992373;28;20515;-68
2022/01/18 09:10:27;;;;;;;11.55;4.00;;;4.80;96.80;;;;;;4991910;28;20026;-68
2022/01/18 09:12:53;;;;;;;15.85;6.78;;;4.80;95.70;;;;;;4974525;28;20026;-69
2022/01/18 09:15:20;;;;;;;13.80;6.57;;;4.90;95.40;;;;;;4991399;28;20077;-69
2022/01/18 09:17:48;;;;;;;24.73;10.15;;;4.90;93.40;;;;;;4973702;28;20505;-69
2022/01/18 09:20:15;;;;;;;19.02;9.82;;;4.90;92.90;;;;;;4991176;28;20076;-68
2022/01/18 09:22:46;;;;;;;20.50;9.50;;;4.90;92.90;;;;;;5003422;28;20024;-69
2022/01/18 09:25:20;;;;;;;15.00;8.35;;;4.90;92.80;;;;;;4976930;28;20033;-67
2022/01/18 09:27:46;;;;;;;10.00;3.05;;;4.90;93.50;;;;;;4993196;28;20038;-68
2022/01/18 09:30:14;;;;;;;7.90;4.93;;;4.70;92.30;;;;;;4998764;28;20050;-69
2022/01/18 09:32:41;;;;;;;14.90;5.57;;;4.60;92.90;;;;;;4973935;28;20485;-69
2022/01/18 09:35:07;;;;;;;15.50;4.53;;;4.60;92.50;;;;;;4981655;28;20368;-69
2022/01/18 09:37:34;;;;;;;12.50;4.85;;;4.60;91.90;;;;;;4975652;28;20041;-69
2022/01/18 09:40:01;;;;;;;14.98;3.80;;;4.70;91.40;;;;;;4992811;28;20507;-69
2022/01/18 09:42:33;;;;;;;21.30;6.35;;;4.80;91.00;;;;;;4989647;28;20527;-68
2022/01/18 09:45:03;;;;;;;10.13;3.33;;;5.00;91.40;;;;;;4984487;28;20056;-69
2022/01/18 09:47:28;;;;;;;9.57;2.70;;;5.10;89.10;;;;;;4990457;28;20031;-68
2022/01/18 09:49:58;;;;;;;9.82;3.13;;;5.00;90.00;;;;;;4991827;28;20037;-69
2022/01/18 09:52:24;;;;;;;11.93;4.38;;;4.90;90.00;;;;;;4990646;28;20054;-68
2022/01/18 09:54:50;;;;;;;11.35;4.25;;;4.90;88.90;;;;;;4989972;28;20034;-68
2022/01/18 09:57:15;;;;;;;10.63;3.50;;;4.90;88.00;;;;;;4948041;28;1178768;-68
2022/01/18 09:59:41;;;;;;;18.25;5.10;;;4.80;87.00;;;;;;4972390;28;20485;-69
2022/01/18 10:02:11;;;;;;;11.05;4.00;;;4.80;87.00;;;;;;4978103;28;20030;-69
2022/01/18 10:04:42;;;;;;;16.45;3.88;;;4.80;87.20;;;;;;4971891;28;20030;-67
2022/01/18 10:07:08;;;;;;;14.90;5.57;;;4.80;88.80;;;;;;4981627;28;20031;-69
2022/01/18 10:09:35;;;;;;;10.73;3.22;;;4.90;85.20;;;;;;4984455;28;20473;-70
2022/01/18 10:12:02;;;;;;;7.68;2.60;;;5.10;89.70;;;;;;4994679;28;20041;-69
2022/01/18 10:14:29;;;;;;;5.47;2.75;;;5.10;87.30;;;;;;4989437;28;20026;-68
2022/01/18 10:16:56;;;;;;;8.40;4.10;;;5.20;88.50;;;;;;4975091;28;20042;-69
2022/01/18 10:19:38;;;;;;;9.45;4.10;;;5.30;88.70;;;;;;4986299;28;20497;-68
2022/01/18 10:22:10;;;;;;;12.32;3.45;;;5.30;87.60;;;;;;4975869;28;20039;-68
2022/01/18 10:24:36;;;;;;;5.80;2.35;;;5.10;86.00;;;;;;4981135;28;20413;-69
2022/01/18 10:27:03;;;;;;;18.55;5.35;;;5.20;85.90;;;;;;4992638;28;20037;-68
2022/01/18 10:29:36;;;;;;;10.80;4.95;;;5.20;85.00;;;;;;4986164;28;20066;-68
2022/01/18 10:37:30;;;;;;;11.32;3.38;;;5.40;87.90;;;;;;4902752;29;20067;-70
2022/01/18 10:40:18;;;;;;;10.90;4.00;;;5.10;84.70;;;;;;4900678;29;20435;-69
2022/01/18 10:42:49;;;;;;;11.32;4.07;;;5.30;87.00;;;;;;4913667;29;20032;-68
2022/01/18 10:45:31;;;;;;;6.25;2.60;;;5.40;88.10;;;;;;4912798;29;20434;-68
2022/01/18 10:48:01;;;;;;;18.70;4.10;;;5.50;85.20;;;;;;4914993;29;20032;-68
2022/01/18 10:50:34;;;;;;;10.55;3.75;;;5.40;86.40;;;;;;4902134;29;20037;-69
2022/01/18 10:53:18;;;;;;;;;;;5.40;84.50;;;;;;4920619;29;20036;-69
2022/01/18 10:55:46;;;;;;;9.07;3.38;;;5.40;85.60;;;;;;4915656;29;20432;-70
2022/01/18 10:58:19;;;;;;;9.82;3.92;;;5.70;86.80;;;;;;4915165;29;20099;-70
2022/01/18 11:00:45;;;;;;;10.52;3.28;;;5.60;90.80;;;;;;4912903;29;20398;-71
2022/01/18 11:03:12;;;;;;;7.78;2.60;;;5.60;87.30;;;;;;4927316;29;20434;-71
2022/01/18 11:05:40;;;;;;;10.70;5.35;;;5.80;87.30;;;;;;4932758;29;20020;-70
2022/01/18 11:08:07;;;;;;;10.55;3.88;;;5.80;91.10;;;;;;4923167;29;20055;-70
2022/01/18 11:10:43;;;;;;;8.88;3.97;;;5.80;89.30;;;;;;4914336;29;20040;-70
2022/01/18 11:13:23;;;;;;;8.93;3.40;;;5.70;92.30;;;;;;4919675;29;20046;-70
2022/01/18 11:16:01;;;;;;;11.82;4.78;;;5.80;88.30;;;;;;4986920;28;20023;-69
2022/01/18 11:18:31;;;;;;;12.95;3.22;;;5.90;89.50;;;;;;4985072;28;20030;-70
2022/01/18 11:21:01;;;;;;;7.53;3.15;;;5.90;89.00;;;;;;4988480;28;20027;-69
2022/01/18 11:23:30;;;;;;;19.00;6.63;;;5.90;89.10;;;;;;4988954;28;20041;-71
2022/01/18 11:25:58;;;;;;;9.88;4.18;;;5.80;90.10;;;;;;4982530;28;20022;-70
2022/01/18 11:28:26;;;;;;;10.45;2.97;;;5.80;86.90;;;;;;4974867;28;20474;-70
2022/01/18 11:30:51;;;;;;;11.63;3.33;;;5.90;91.30;;;;;;4976575;28;20432;-70
2022/01/18 11:33:22;;;;;;;11.43;4.13;;;5.90;90.00;;;;;;4974033;28;20106;-69
2022/01/18 11:36:04;;;;;;;11.15;3.60;;;5.80;88.20;;;;;;4975659;28;20023;-70
2022/01/18 11:38:45;;;;;;;7.03;3.35;;;5.70;89.50;;;;;;4989488;28;20034;-70
2022/01/18 11:41:32;;;;;;;9.32;3.53;;;5.70;90.10;;;;;;4975325;28;20096;-69
2022/01/18 11:44:16;;;;;;;11.93;3.47;;;5.90;89.70;;;;;;4988208;28;20092;-69
2022/01/18 11:46:52;;;;;;;10.50;5.20;;;6.00;87.90;;;;;;4993325;28;20441;-69
2022/01/18 11:49:23;;;;;;;9.80;3.22;;;5.90;87.50;;;;;;4946390;28;20038;-69
2022/01/18 11:51:53;;;;;;;7.63;2.83;;;5.90;91.10;;;;;;4992072;28;20033;-71
2022/01/18 11:55:14;;;;;;;7.88;3.58;;;5.80;90.90;;;;;;4976236;28;20039;-70
2022/01/18 11:57:24;;;;;;;18.92;7.07;;;5.90;91.90;;;;;;4989719;28;20109;-69
2022/01/18 11:59:54;;;;;;;7.32;2.80;;;5.90;93.00;;;;;;4992856;28;20477;-70
2022/01/18 12:02:38;;;;;;;12.82;3.58;;;5.90;92.60;;;;;;4991727;28;20038;-70
2022/01/18 12:05:19;;;;;;;8.15;3.67;;;6.00;90.60;;;;;;4990430;28;20034;-71
2022/01/18 12:07:48;;;;;;;11.70;4.32;;;5.90;92.40;;;;;;4975970;28;20443;-69
2022/01/18 12:10:38;;;;;;;11.18;4.00;;;5.90;93.20;;;;;;5003314;28;20014;-68
2022/01/18 12:13:13;;;;;;;10.38;3.83;;;5.80;95.20;;;;;;4983683;28;20023;-69
2022/01/18 12:15:46;;;;;;;5.63;2.85;;;5.90;92.80;;;;;;4989185;28;20353;-70
2022/01/18 12:18:24;;;;;;;10.18;3.55;;;5.80;90.50;;;;;;4990694;28;20049;-69
2022/01/18 12:20:53;;;;;;;8.00;3.25;;;5.60;92.70;;;;;;4988936;28;20035;-69
2022/01/18 12:23:32;;;;;;;11.13;2.75;;;5.60;91.70;;;;;;4985693;28;20569;-68
2022/01/18 12:26:16;;;;;;;6.18;2.65;;;5.70;91.50;;;;;;4990718;28;20026;-68
2022/01/18 12:34:30;;;;;;;7.72;3.25;;;5.40;91.20;;;;;;4984823;28;20030;-70
2022/01/18 12:37:26;;;;;;;19.88;7.68;;;5.40;93.30;;;;;;4989182;28;20026;-70
2022/01/18 12:45:22;;;;;;;18.77;6.22;;;5.60;91.90;;;;;;4989700;28;20030;-69
2022/01/18 12:47:59;;;;;;;13.38;4.82;;;5.70;90.40;;;;;;4979500;28;20061;-71
2022/01/18 12:50:36;;;;;;;16.55;5.95;;;5.60;90.30;;;;;;4984483;28;20030;-70
2022/01/18 12:53:17;;;;;;;12.00;5.70;;;5.60;90.70;;;;;;4991755;28;20097;-70
2022/01/18 12:55:49;;;;;;;15.02;4.55;;;5.60;91.00;;;;;;4990519;28;20118;-70
2022/01/18 12:58:40;;;;;;;13.50;4.97;;;5.60;92.10;;;;;;4972018;28;20490;-69
2022/01/18 13:01:09;;;;;;;16.63;4.65;;;5.60;92.10;;;;;;4951844;28;20130;-69
2022/01/18 13:03:44;;;;;;;12.00;4.97;;;5.60;91.50;;;;;;4972167;28;20516;-68
2022/01/18 13:06:13;;;;;;;7.38;3.50;;;5.60;92.40;;;;;;4972407;28;20137;-69
2022/01/18 13:08:49;;;;;;;13.25;5.20;;;5.50;91.90;;;;;;4966360;28;20054;-71
2022/01/18 13:11:21;;;;;;;16.05;7.40;;;5.60;92.10;;;;;;4973804;28;20043;-69
2022/01/18 13:13:54;;;;;;;23.20;9.37;;;5.60;91.60;;;;;;4973313;28;20054;-70
2022/01/18 13:27:20;;;;;;;12.50;4.82;;;5.80;92.10;;;;;;4986913;28;20076;-69
2022/01/18 13:29:49;;;;;;;13.57;4.82;;;5.90;90.90;;;;;;4985491;28;20027;-68
2022/01/18 13:32:23;;;;;;;15.40;5.32;;;5.90;91.60;;;;;;4978732;28;20104;-68
2022/01/18 13:34:56;;;;;;;16.10;4.47;;;5.90;90.10;;;;;;4990894;28;20022;-68
2022/01/18 13:37:31;;;;;;;9.85;3.85;;;6.00;91.60;;;;;;4975245;28;20035;-68
2022/01/18 13:40:06;;;;;;;12.93;4.50;;;5.90;91.10;;;;;;4974556;28;20029;-68
2022/01/18 13:42:40;;;;;;;13.15;4.13;;;6.00;92.50;;;;;;4992378;28;20542;-68
2022/01/18 13:45:16;;;;;;;10.63;3.78;;;6.00;92.10;;;;;;4994178;28;20512;-69
2022/01/18 13:47:59;;;;;;;9.40;4.45;;;6.00;91.70;;;;;;4987506;28;20046;-69
2022/01/18 13:50:37;;;;;;;;;;;5.90;90.70;;;;;;4993848;28;20062;-69
2022/01/18 13:53:26;;;;;;;11.82;4.43;;;5.90;91.10;;;;;;4974609;28;19942;-70
2022/01/18 13:56:03;;;;;;;10.43;3.50;;;5.90;91.50;;;;;;4988817;28;20026;-69
2022/01/18 13:58:36;;;;;;;14.75;4.80;;;5.90;91.20;;;;;;4993511;28;20054;-69
2022/01/18 14:01:20;;;;;;;8.20;2.83;;;5.90;90.60;;;;;;4991959;28;20030;-69
2022/01/18 14:03:52;;;;;;;9.88;4.55;;;5.90;92.10;;;;;;4980343;28;20093;-70
2022/01/18 14:06:19;;;;;;;15.70;6.55;;;5.90;93.30;;;;;;4977594;28;20105;-68
2022/01/18 14:08:49;;;;;;;14.00;4.18;;;6.00;93.20;;;;;;4983733;28;20026;-69
2022/01/18 14:11:17;;;;;;;10.57;4.53;;;5.90;93.40;;;;;;4984036;28;20577;-68
2022/01/18 14:13:46;;;;;;;12.00;4.50;;;6.00;91.00;;;;;;4994742;28;20054;-69
2022/01/18 14:16:33;;;;;;;12.77;4.85;;;5.90;92.20;;;;;;4976867;28;20034;-69
2022/01/18 14:19:05;;;;;;;18.33;5.82;;;6.10;92.50;;;;;;4987955;28;20388;-69
2022/01/18 14:21:46;;;;;;;20.70;5.53;;;6.10;93.50;;;;;;4979748;28;20019;-68
2022/01/18 14:24:16;;;;;;;17.05;7.63;;;6.10;92.60;;;;;;4976872;28;20041;-67
2022/01/18 14:26:54;;;;;;;20.65;6.53;;;6.10;92.20;;;;;;4993974;28;20080;-69
2022/01/18 14:29:22;;;;;;;11.35;4.75;;;6.10;91.50;;;;;;4985698;28;20026;-68
2022/01/18 14:32:02;;;;;;;16.58;6.07;;;6.10;91.50;;;;;;4974283;28;20580;-67
2022/01/18 14:34:40;;;;;;;15.63;6.68;;;6.00;92.40;;;;;;4986759;28;20045;-67
2022/01/18 14:37:11;;;;;;;14.18;5.90;;;6.00;93.40;;;;;;4979941;28;20460;-69
2022/01/18 14:40:00;;;;;;;12.23;5.00;;;6.00;92.80;;;;;;4998280;28;20108;-69
2022/01/18 14:42:33;;;;;;;18.65;6.63;;;6.00;92.50;;;;;;4994899;28;20547;-70
2022/01/18 14:45:18;;;;;;;17.08;6.57;;;6.00;91.80;;;;;;4994818;28;20034;-71